Terminal Aerodrome Forecast
Issued by NWS

Home | Current Version | Previous Version | Graphics & Text | Print | Product List | Glossary On
Versions: 1 2 3 4 5 6 7 8 9 10 11 12 13 14 15 16
657
FTUS43 KIWX 181740
TAFSBN
TAF
KSBN 181740Z 1818/1918 26009KT P6SM FEW250
     FM182300 30006KT P6SM FEW250
     FM190800 VRB03KT P6SM FEW250=

USA.gov is the U.S. government's official web portal to all federal, state and local government web resources and services.